sensor_id;sensor_type;location;lat;lon;timestamp;P1;durP1;ratioP1;P2;durP2;ratioP2
5343;SDS011;2694;48.954;8.928;2023-04-24T00:02:06;0.90;;;0.40;;
5343;SDS011;2694;48.954;8.928;2023-04-24T00:04:35;2.40;;;0.30;;
5343;SDS011;2694;48.954;8.928;2023-04-24T00:07:05;2.25;;;0.40;;
5343;SDS011;2694;48.954;8.928;2023-04-24T00:09:32;1.40;;;0.60;;
5343;SDS011;2694;48.954;8.928;2023-04-24T00:12:00;0.95;;;0.32;;
5343;SDS011;2694;48.954;8.928;2023-04-24T00:14:29;2.00;;;0.50;;
5343;SDS011;2694;48.954;8.928;2023-04-24T00:16:56;1.30;;;0.40;;
5343;SDS011;2694;48.954;8.928;2023-04-24T00:19:23;1.25;;;0.60;;
5343;SDS011;2694;48.954;8.928;2023-04-24T00:21:50;0.88;;;0.40;;
5343;SDS011;2694;48.954;8.928;2023-04-24T00:24:17;0.60;;;0.30;;
5343;SDS011;2694;48.954;8.928;2023-04-24T00:26:44;1.88;;;0.57;;
5343;SDS011;2694;48.954;8.928;2023-04-24T00:29:12;1.90;;;0.60;;
5343;SDS011;2694;48.954;8.928;2023-04-24T00:31:39;1.10;;;0.52;;
5343;SDS011;2694;48.954;8.928;2023-04-24T00:34:06;3.00;;;0.40;;
5343;SDS011;2694;48.954;8.928;2023-04-24T00:36:33;1.63;;;0.40;;
5343;SDS011;2694;48.954;8.928;2023-04-24T00:39:00;2.03;;;0.63;;
5343;SDS011;2694;48.954;8.928;2023-04-24T00:41:27;1.30;;;0.40;;
5343;SDS011;2694;48.954;8.928;2023-04-24T00:43:54;2.70;;;0.60;;
5343;SDS011;2694;48.954;8.928;2023-04-24T00:46:22;1.30;;;0.50;;
5343;SDS011;2694;48.954;8.928;2023-04-24T00:48:49;2.03;;;0.60;;
5343;SDS011;2694;48.954;8.928;2023-04-24T00:51:16;2.60;;;0.50;;
5343;SDS011;2694;48.954;8.928;2023-04-24T00:53:43;1.20;;;0.40;;
5343;SDS011;2694;48.954;8.928;2023-04-24T00:56:10;1.10;;;0.60;;
5343;SDS011;2694;48.954;8.928;2023-04-24T00:58:37;1.85;;;0.50;;
5343;SDS011;2694;48.954;8.928;2023-04-24T01:01:05;2.30;;;0.40;;
5343;SDS011;2694;48.954;8.928;2023-04-24T01:03:34;5.43;;;0.60;;
5343;SDS011;2694;48.954;8.928;2023-04-24T01:06:02;3.47;;;0.40;;
5343;SDS011;2694;48.954;8.928;2023-04-24T01:08:30;1.20;;;0.50;;
5343;SDS011;2694;48.954;8.928;2023-04-24T01:10:57;1.20;;;0.40;;
5343;SDS011;2694;48.954;8.928;2023-04-24T01:13:24;1.00;;;0.30;;
5343;SDS011;2694;48.954;8.928;2023-04-24T01:15:51;0.85;;;0.40;;
5343;SDS011;2694;48.954;8.928;2023-04-24T01:18:18;0.70;;;0.30;;
5343;SDS011;2694;48.954;8.928;2023-04-24T01:20:48;1.60;;;0.40;;
5343;SDS011;2694;48.954;8.928;2023-04-24T01:23:18;2.22;;;0.40;;
5343;SDS011;2694;48.954;8.928;2023-04-24T01:25:45;1.17;;;0.45;;
5343;SDS011;2694;48.954;8.928;2023-04-24T01:28:13;1.45;;;0.40;;
5343;SDS011;2694;48.954;8.928;2023-04-24T01:30:41;2.78;;;0.45;;
5343;SDS011;2694;48.954;8.928;2023-04-24T01:33:09;1.90;;;0.40;;
5343;SDS011;2694;48.954;8.928;2023-04-24T01:35:36;0.93;;;0.30;;
5343;SDS011;2694;48.954;8.928;2023-04-24T01:38:03;0.90;;;0.40;;
5343;SDS011;2694;48.954;8.928;2023-04-24T01:40:32;2.97;;;0.40;;
5343;SDS011;2694;48.954;8.928;2023-04-24T01:43:00;2.13;;;0.30;;
5343;SDS011;2694;48.954;8.928;2023-04-24T01:45:27;6.47;;;0.60;;
5343;SDS011;2694;48.954;8.928;2023-04-24T01:47:54;2.10;;;0.40;;
5343;SDS011;2694;48.954;8.928;2023-04-24T01:50:21;1.13;;;0.40;;
5343;SDS011;2694;48.954;8.928;2023-04-24T01:52:48;1.52;;;0.40;;
5343;SDS011;2694;48.954;8.928;2023-04-24T01:55:15;0.70;;;0.30;;
5343;SDS011;2694;48.954;8.928;2023-04-24T01:57:43;1.10;;;0.50;;
5343;SDS011;2694;48.954;8.928;2023-04-24T02:00:10;2.60;;;0.40;;
5343;SDS011;2694;48.954;8.928;2023-04-24T02:02:38;1.40;;;0.43;;
5343;SDS011;2694;48.954;8.928;2023-04-24T02:05:06;1.92;;;0.60;;
5343;SDS011;2694;48.954;8.928;2023-04-24T02:07:33;1.13;;;0.40;;
5343;SDS011;2694;48.954;8.928;2023-04-24T02:10:00;1.60;;;0.40;;
5343;SDS011;2694;48.954;8.928;2023-04-24T02:12:29;1.60;;;0.60;;
5343;SDS011;2694;48.954;8.928;2023-04-24T02:14:57;1.42;;;0.30;;
5343;SDS011;2694;48.954;8.928;2023-04-24T02:17:24;1.70;;;0.40;;
5343;SDS011;2694;48.954;8.928;2023-04-24T02:19:51;1.50;;;0.50;;
5343;SDS011;2694;48.954;8.928;2023-04-24T02:22:18;2.83;;;0.52;;
5343;SDS011;2694;48.954;8.928;2023-04-24T02:24:45;1.40;;;0.40;;
5343;SDS011;2694;48.954;8.928;2023-04-24T02:27:12;1.10;;;0.32;;
5343;SDS011;2694;48.954;8.928;2023-04-24T02:29:39;1.80;;;0.50;;
5343;SDS011;2694;48.954;8.928;2023-04-24T02:32:08;1.70;;;0.40;;
5343;SDS011;2694;48.954;8.928;2023-04-24T02:34:36;2.22;;;0.47;;
5343;SDS011;2694;48.954;8.928;2023-04-24T02:37:03;0.93;;;0.40;;
5343;SDS011;2694;48.954;8.928;2023-04-24T02:39:30;1.90;;;0.40;;
5343;SDS011;2694;48.954;8.928;2023-04-24T02:41:57;0.73;;;0.40;;
5343;SDS011;2694;48.954;8.928;2023-04-24T02:44:25;2.80;;;0.55;;
5343;SDS011;2694;48.954;8.928;2023-04-24T02:46:52;1.60;;;0.40;;
5343;SDS011;2694;48.954;8.928;2023-04-24T02:49:20;1.70;;;0.30;;
5343;SDS011;2694;48.954;8.928;2023-04-24T02:51:47;3.30;;;0.40;;
5343;SDS011;2694;48.954;8.928;2023-04-24T02:54:14;3.38;;;0.40;;
5343;SDS011;2694;48.954;8.928;2023-04-24T02:56:41;1.10;;;0.50;;
5343;SDS011;2694;48.954;8.928;2023-04-24T02:59:08;2.67;;;0.40;;
5343;SDS011;2694;48.954;8.928;2023-04-24T03:01:35;2.55;;;0.50;;
5343;SDS011;2694;48.954;8.928;2023-04-24T03:04:02;3.10;;;0.60;;
5343;SDS011;2694;48.954;8.928;2023-04-24T03:06:31;1.70;;;0.70;;
5343;SDS011;2694;48.954;8.928;2023-04-24T03:09:00;2.90;;;0.50;;
5343;SDS011;2694;48.954;8.928;2023-04-24T03:11:28;1.40;;;0.40;;
5343;SDS011;2694;48.954;8.928;2023-04-24T03:13:55;3.20;;;0.50;;
5343;SDS011;2694;48.954;8.928;2023-04-24T03:16:22;0.90;;;0.60;;
5343;SDS011;2694;48.954;8.928;2023-04-24T03:18:49;2.60;;;0.50;;
5343;SDS011;2694;48.954;8.928;2023-04-24T03:21:16;1.60;;;0.80;;
5343;SDS011;2694;48.954;8.928;2023-04-24T03:23:44;1.30;;;0.77;;
5343;SDS011;2694;48.954;8.928;2023-04-24T03:26:11;0.82;;;0.40;;
5343;SDS011;2694;48.954;8.928;2023-04-24T03:28:38;1.40;;;0.50;;
5343;SDS011;2694;48.954;8.928;2023-04-24T03:31:04;1.00;;;0.30;;
5343;SDS011;2694;48.954;8.928;2023-04-24T03:33:31;0.75;;;0.32;;
5343;SDS011;2694;48.954;8.928;2023-04-24T03:35:58;0.90;;;0.43;;
5343;SDS011;2694;48.954;8.928;2023-04-24T03:38:25;1.70;;;0.60;;
5343;SDS011;2694;48.954;8.928;2023-04-24T03:40:53;3.45;;;0.60;;
5343;SDS011;2694;48.954;8.928;2023-04-24T03:43:20;0.63;;;0.40;;
5343;SDS011;2694;48.954;8.928;2023-04-24T03:45:47;4.13;;;0.50;;
5343;SDS011;2694;48.954;8.928;2023-04-24T03:48:14;4.03;;;0.70;;
5343;SDS011;2694;48.954;8.928;2023-04-24T03:50:41;3.50;;;1.00;;
5343;SDS011;2694;48.954;8.928;2023-04-24T03:53:08;4.05;;;0.80;;
5343;SDS011;2694;48.954;8.928;2023-04-24T03:55:35;2.20;;;0.70;;
5343;SDS011;2694;48.954;8.928;2023-04-24T03:58:03;5.40;;;0.60;;
5343;SDS011;2694;48.954;8.928;2023-04-24T04:00:31;1.30;;;0.70;;
5343;SDS011;2694;48.954;8.928;2023-04-24T04:02:58;2.63;;;0.70;;
5343;SDS011;2694;48.954;8.928;2023-04-24T04:05:25;2.85;;;1.10;;
5343;SDS011;2694;48.954;8.928;2023-04-24T04:07:52;2.13;;;1.17;;
5343;SDS011;2694;48.954;8.928;2023-04-24T04:10:19;3.30;;;1.00;;
5343;SDS011;2694;48.954;8.928;2023-04-24T04:12:46;2.13;;;1.10;;
5343;SDS011;2694;48.954;8.928;2023-04-24T04:15:14;2.60;;;0.73;;
5343;SDS011;2694;48.954;8.928;2023-04-24T04:17:43;1.40;;;1.00;;
5343;SDS011;2694;48.954;8.928;2023-04-24T04:20:10;2.17;;;0.90;;
5343;SDS011;2694;48.954;8.928;2023-04-24T04:22:38;3.00;;;1.08;;
5343;SDS011;2694;48.954;8.928;2023-04-24T04:25:05;3.22;;;0.95;;
5343;SDS011;2694;48.954;8.928;2023-04-24T04:27:33;3.25;;;0.98;;
5343;SDS011;2694;48.954;8.928;2023-04-24T04:30:01;2.10;;;1.10;;
5343;SDS011;2694;48.954;8.928;2023-04-24T04:32:31;2.17;;;1.00;;
5343;SDS011;2694;48.954;8.928;2023-04-24T04:34:58;1.95;;;1.00;;
5343;SDS011;2694;48.954;8.928;2023-04-24T04:37:28;2.30;;;0.90;;
5343;SDS011;2694;48.954;8.928;2023-04-24T04:39:55;3.53;;;1.30;;
5343;SDS011;2694;48.954;8.928;2023-04-24T04:42:23;1.77;;;1.00;;
5343;SDS011;2694;48.954;8.928;2023-04-24T04:44:49;5.55;;;1.17;;
5343;SDS011;2694;48.954;8.928;2023-04-24T04:47:17;1.67;;;1.00;;
5343;SDS011;2694;48.954;8.928;2023-04-24T04:49:48;3.50;;;1.10;;
5343;SDS011;2694;48.954;8.928;2023-04-24T04:52:16;1.77;;;1.15;;
5343;SDS011;2694;48.954;8.928;2023-04-24T04:54:43;3.13;;;1.25;;
5343;SDS011;2694;48.954;8.928;2023-04-24T04:57:11;1.60;;;1.30;;
5343;SDS011;2694;48.954;8.928;2023-04-24T04:59:38;2.20;;;1.40;;
5343;SDS011;2694;48.954;8.928;2023-04-24T05:02:06;2.00;;;1.10;;
5343;SDS011;2694;48.954;8.928;2023-04-24T05:04:33;3.92;;;1.20;;
5343;SDS011;2694;48.954;8.928;2023-04-24T05:07:01;2.90;;;1.33;;
5343;SDS011;2694;48.954;8.928;2023-04-24T05:09:28;3.50;;;1.50;;
5343;SDS011;2694;48.954;8.928;2023-04-24T05:11:55;4.55;;;2.65;;
5343;SDS011;2694;48.954;8.928;2023-04-24T05:14:22;3.55;;;2.20;;
5343;SDS011;2694;48.954;8.928;2023-04-24T05:16:49;4.20;;;1.90;;
5343;SDS011;2694;48.954;8.928;2023-04-24T05:19:15;3.92;;;1.92;;
5343;SDS011;2694;48.954;8.928;2023-04-24T05:21:42;2.42;;;1.77;;
5343;SDS011;2694;48.954;8.928;2023-04-24T05:24:11;2.30;;;1.40;;
5343;SDS011;2694;48.954;8.928;2023-04-24T05:26:38;3.38;;;1.63;;
5343;SDS011;2694;48.954;8.928;2023-04-24T05:29:05;2.67;;;1.80;;
5343;SDS011;2694;48.954;8.928;2023-04-24T05:31:32;3.25;;;1.60;;
5343;SDS011;2694;48.954;8.928;2023-04-24T05:33:59;2.70;;;1.70;;
5343;SDS011;2694;48.954;8.928;2023-04-24T05:36:26;3.00;;;1.80;;
5343;SDS011;2694;48.954;8.928;2023-04-24T05:38:53;3.50;;;1.90;;
5343;SDS011;2694;48.954;8.928;2023-04-24T05:41:21;3.35;;;1.90;;
5343;SDS011;2694;48.954;8.928;2023-04-24T05:43:48;3.43;;;2.00;;
5343;SDS011;2694;48.954;8.928;2023-04-24T05:46:16;6.07;;;3.60;;
5343;SDS011;2694;48.954;8.928;2023-04-24T05:48:43;1.88;;;1.65;;
5343;SDS011;2694;48.954;8.928;2023-04-24T05:51:10;2.70;;;2.10;;
5343;SDS011;2694;48.954;8.928;2023-04-24T05:53:37;4.28;;;1.92;;
5343;SDS011;2694;48.954;8.928;2023-04-24T05:56:05;2.67;;;1.88;;
5343;SDS011;2694;48.954;8.928;2023-04-24T05:58:33;2.20;;;1.80;;
5343;SDS011;2694;48.954;8.928;2023-04-24T06:01:00;3.10;;;1.60;;
5343;SDS011;2694;48.954;8.928;2023-04-24T06:03:27;4.15;;;1.90;;
5343;SDS011;2694;48.954;8.928;2023-04-24T06:05:54;5.93;;;1.80;;
5343;SDS011;2694;48.954;8.928;2023-04-24T06:08:21;3.53;;;2.25;;
5343;SDS011;2694;48.954;8.928;2023-04-24T06:10:48;5.68;;;2.03;;
5343;SDS011;2694;48.954;8.928;2023-04-24T06:13:15;2.83;;;1.70;;
5343;SDS011;2694;48.954;8.928;2023-04-24T06:15:43;4.55;;;1.50;;
5343;SDS011;2694;48.954;8.928;2023-04-24T06:18:10;3.90;;;1.50;;
5343;SDS011;2694;48.954;8.928;2023-04-24T06:20:37;1.88;;;1.20;;
5343;SDS011;2694;48.954;8.928;2023-04-24T06:23:05;2.30;;;1.90;;
5343;SDS011;2694;48.954;8.928;2023-04-24T06:25:31;2.65;;;1.50;;
5343;SDS011;2694;48.954;8.928;2023-04-24T06:27:59;1.90;;;1.60;;
5343;SDS011;2694;48.954;8.928;2023-04-24T06:30:26;2.30;;;1.90;;
5343;SDS011;2694;48.954;8.928;2023-04-24T06:32:54;3.22;;;1.60;;
5343;SDS011;2694;48.954;8.928;2023-04-24T06:35:21;1.90;;;1.40;;
5343;SDS011;2694;48.954;8.928;2023-04-24T06:37:48;4.05;;;1.70;;
5343;SDS011;2694;48.954;8.928;2023-04-24T06:40:15;2.00;;;1.20;;
5343;SDS011;2694;48.954;8.928;2023-04-24T06:42:43;1.50;;;1.20;;
5343;SDS011;2694;48.954;8.928;2023-04-24T06:45:10;1.95;;;1.40;;
5343;SDS011;2694;48.954;8.928;2023-04-24T06:47:37;3.28;;;1.63;;
5343;SDS011;2694;48.954;8.928;2023-04-24T06:50:06;2.40;;;1.70;;
5343;SDS011;2694;48.954;8.928;2023-04-24T06:52:33;3.67;;;1.88;;
5343;SDS011;2694;48.954;8.928;2023-04-24T06:55:00;3.50;;;2.10;;
5343;SDS011;2694;48.954;8.928;2023-04-24T06:57:28;4.00;;;1.98;;
5343;SDS011;2694;48.954;8.928;2023-04-24T06:59:55;4.40;;;1.93;;
5343;SDS011;2694;48.954;8.928;2023-04-24T07:02:22;2.20;;;1.60;;
5343;SDS011;2694;48.954;8.928;2023-04-24T07:04:49;3.30;;;1.92;;
5343;SDS011;2694;48.954;8.928;2023-04-24T07:07:17;2.10;;;1.40;;
5343;SDS011;2694;48.954;8.928;2023-04-24T07:09:44;4.22;;;1.30;;
5343;SDS011;2694;48.954;8.928;2023-04-24T07:12:11;2.97;;;1.50;;
5343;SDS011;2694;48.954;8.928;2023-04-24T07:14:38;1.95;;;1.40;;
5343;SDS011;2694;48.954;8.928;2023-04-24T07:17:05;2.10;;;1.40;;
5343;SDS011;2694;48.954;8.928;2023-04-24T07:19:32;5.68;;;1.70;;
5343;SDS011;2694;48.954;8.928;2023-04-24T07:22:00;3.50;;;1.30;;
5343;SDS011;2694;48.954;8.928;2023-04-24T07:24:29;2.50;;;1.30;;
5343;SDS011;2694;48.954;8.928;2023-04-24T07:26:57;4.43;;;1.30;;
5343;SDS011;2694;48.954;8.928;2023-04-24T07:29:26;4.90;;;1.42;;
5343;SDS011;2694;48.954;8.928;2023-04-24T07:31:53;2.20;;;1.27;;
5343;SDS011;2694;48.954;8.928;2023-04-24T07:34:21;4.22;;;1.38;;
5343;SDS011;2694;48.954;8.928;2023-04-24T07:36:48;4.93;;;0.98;;
5343;SDS011;2694;48.954;8.928;2023-04-24T07:39:15;2.33;;;0.93;;
5343;SDS011;2694;48.954;8.928;2023-04-24T07:41:43;2.80;;;1.13;;
5343;SDS011;2694;48.954;8.928;2023-04-24T07:44:10;3.08;;;0.88;;
5343;SDS011;2694;48.954;8.928;2023-04-24T07:46:37;2.70;;;1.10;;
5343;SDS011;2694;48.954;8.928;2023-04-24T07:49:04;1.40;;;0.90;;
5343;SDS011;2694;48.954;8.928;2023-04-24T07:51:31;1.35;;;1.00;;
5343;SDS011;2694;48.954;8.928;2023-04-24T07:54:03;2.65;;;1.10;;
5343;SDS011;2694;48.954;8.928;2023-04-24T07:56:30;1.50;;;0.80;;
5343;SDS011;2694;48.954;8.928;2023-04-24T07:58:59;2.30;;;1.00;;
5343;SDS011;2694;48.954;8.928;2023-04-24T08:01:27;2.15;;;0.90;;
5343;SDS011;2694;48.954;8.928;2023-04-24T08:03:54;3.33;;;0.90;;
5343;SDS011;2694;48.954;8.928;2023-04-24T08:06:20;4.03;;;1.10;;
5343;SDS011;2694;48.954;8.928;2023-04-24T08:08:48;1.60;;;1.00;;
5343;SDS011;2694;48.954;8.928;2023-04-24T08:11:15;2.60;;;1.10;;
5343;SDS011;2694;48.954;8.928;2023-04-24T08:13:42;3.88;;;1.20;;
5343;SDS011;2694;48.954;8.928;2023-04-24T08:16:10;6.30;;;1.40;;
5343;SDS011;2694;48.954;8.928;2023-04-24T08:18:37;2.42;;;0.88;;
5343;SDS011;2694;48.954;8.928;2023-04-24T08:21:04;1.90;;;1.00;;
5343;SDS011;2694;48.954;8.928;2023-04-24T08:23:31;3.53;;;1.03;;
5343;SDS011;2694;48.954;8.928;2023-04-24T08:25:58;3.38;;;1.15;;
5343;SDS011;2694;48.954;8.928;2023-04-24T08:28:25;1.80;;;1.00;;
5343;SDS011;2694;48.954;8.928;2023-04-24T08:30:52;2.57;;;0.97;;
5343;SDS011;2694;48.954;8.928;2023-04-24T08:33:21;2.90;;;0.80;;
5343;SDS011;2694;48.954;8.928;2023-04-24T08:35:48;2.08;;;0.90;;
5343;SDS011;2694;48.954;8.928;2023-04-24T08:38:15;2.60;;;0.90;;
5343;SDS011;2694;48.954;8.928;2023-04-24T08:40:42;3.30;;;0.88;;
5343;SDS011;2694;48.954;8.928;2023-04-24T08:43:10;4.15;;;0.90;;
5343;SDS011;2694;48.954;8.928;2023-04-24T08:45:39;2.47;;;0.90;;
5343;SDS011;2694;48.954;8.928;2023-04-24T08:48:06;5.82;;;1.00;;
5343;SDS011;2694;48.954;8.928;2023-04-24T08:50:36;1.90;;;0.80;;
5343;SDS011;2694;48.954;8.928;2023-04-24T08:53:03;2.70;;;0.90;;
5343;SDS011;2694;48.954;8.928;2023-04-24T08:55:30;1.30;;;0.70;;
5343;SDS011;2694;48.954;8.928;2023-04-24T08:57:59;1.50;;;1.00;;
5343;SDS011;2694;48.954;8.928;2023-04-24T09:00:27;3.70;;;1.00;;
5343;SDS011;2694;48.954;8.928;2023-04-24T09:02:55;2.17;;;1.10;;
5343;SDS011;2694;48.954;8.928;2023-04-24T09:05:22;1.98;;;0.90;;
5343;SDS011;2694;48.954;8.928;2023-04-24T09:07:52;1.80;;;1.02;;
5343;SDS011;2694;48.954;8.928;2023-04-24T09:10:21;2.75;;;0.90;;
5343;SDS011;2694;48.954;8.928;2023-04-24T09:12:49;2.28;;;1.00;;
5343;SDS011;2694;48.954;8.928;2023-04-24T09:15:17;1.60;;;0.70;;
5343;SDS011;2694;48.954;8.928;2023-04-24T09:17:45;2.90;;;1.00;;
5343;SDS011;2694;48.954;8.928;2023-04-24T09:20:13;2.28;;;0.80;;
5343;SDS011;2694;48.954;8.928;2023-04-24T09:22:40;5.90;;;0.90;;
5343;SDS011;2694;48.954;8.928;2023-04-24T09:25:10;2.90;;;0.70;;
5343;SDS011;2694;48.954;8.928;2023-04-24T09:27:40;1.10;;;0.73;;
5343;SDS011;2694;48.954;8.928;2023-04-24T09:30:10;2.50;;;0.90;;
5343;SDS011;2694;48.954;8.928;2023-04-24T09:32:37;3.30;;;0.90;;
5343;SDS011;2694;48.954;8.928;2023-04-24T09:35:05;1.42;;;0.70;;
5343;SDS011;2694;48.954;8.928;2023-04-24T09:37:37;2.05;;;0.77;;
5343;SDS011;2694;48.954;8.928;2023-04-24T09:40:12;2.40;;;1.03;;
5343;SDS011;2694;48.954;8.928;2023-04-24T09:42:43;4.00;;;1.20;;
5343;SDS011;2694;48.954;8.928;2023-04-24T09:45:11;2.85;;;0.80;;
5343;SDS011;2694;48.954;8.928;2023-04-24T09:47:38;1.60;;;0.70;;
5343;SDS011;2694;48.954;8.928;2023-04-24T09:50:09;3.13;;;0.63;;
5343;SDS011;2694;48.954;8.928;2023-04-24T09:52:39;2.45;;;0.80;;
5343;SDS011;2694;48.954;8.928;2023-04-24T09:55:13;1.30;;;0.60;;
5343;SDS011;2694;48.954;8.928;2023-04-24T09:57:52;2.13;;;0.70;;
5343;SDS011;2694;48.954;8.928;2023-04-24T10:00:23;2.00;;;0.73;;
5343;SDS011;2694;48.954;8.928;2023-04-24T10:02:55;6.10;;;1.13;;
5343;SDS011;2694;48.954;8.928;2023-04-24T10:05:24;1.35;;;1.02;;
5343;SDS011;2694;48.954;8.928;2023-04-24T10:07:56;4.50;;;1.02;;
5343;SDS011;2694;48.954;8.928;2023-04-24T10:10:25;3.08;;;0.90;;
5343;SDS011;2694;48.954;8.928;2023-04-24T10:12:52;1.40;;;0.90;;
5343;SDS011;2694;48.954;8.928;2023-04-24T10:15:20;3.83;;;0.70;;
5343;SDS011;2694;48.954;8.928;2023-04-24T10:17:48;2.17;;;1.17;;
5343;SDS011;2694;48.954;8.928;2023-04-24T10:20:18;1.45;;;1.25;;
5343;SDS011;2694;48.954;8.928;2023-04-24T10:22:46;2.58;;;1.10;;
5343;SDS011;2694;48.954;8.928;2023-04-24T10:25:16;2.67;;;1.30;;
5343;SDS011;2694;48.954;8.928;2023-04-24T10:27:46;1.55;;;0.98;;
5343;SDS011;2694;48.954;8.928;2023-04-24T10:30:15;2.80;;;1.30;;
5343;SDS011;2694;48.954;8.928;2023-04-24T10:32:42;5.10;;;1.40;;
5343;SDS011;2694;48.954;8.928;2023-04-24T10:35:09;2.70;;;1.38;;
5343;SDS011;2694;48.954;8.928;2023-04-24T10:37:38;2.90;;;1.27;;
5343;SDS011;2694;48.954;8.928;2023-04-24T10:40:07;2.97;;;1.00;;
5343;SDS011;2694;48.954;8.928;2023-04-24T10:42:36;2.40;;;1.00;;
5343;SDS011;2694;48.954;8.928;2023-04-24T10:45:08;5.00;;;1.30;;
5343;SDS011;2694;48.954;8.928;2023-04-24T10:47:50;3.22;;;1.00;;
5343;SDS011;2694;48.954;8.928;2023-04-24T10:50:18;2.00;;;1.10;;
5343;SDS011;2694;48.954;8.928;2023-04-24T10:52:45;2.50;;;1.00;;
5343;SDS011;2694;48.954;8.928;2023-04-24T10:55:13;1.92;;;0.80;;
5343;SDS011;2694;48.954;8.928;2023-04-24T11:00:30;3.70;;;1.08;;
5343;SDS011;2694;48.954;8.928;2023-04-24T11:02:58;2.88;;;1.00;;
5343;SDS011;2694;48.954;8.928;2023-04-24T11:08:22;2.53;;;0.95;;
5343;SDS011;2694;48.954;8.928;2023-04-24T11:10:57;2.72;;;1.30;;
5343;SDS011;2694;48.954;8.928;2023-04-24T11:13:26;4.13;;;1.40;;
5343;SDS011;2694;48.954;8.928;2023-04-24T11:16:25;2.77;;;1.10;;
5343;SDS011;2694;48.954;8.928;2023-04-24T11:18:59;2.58;;;1.30;;
5343;SDS011;2694;48.954;8.928;2023-04-24T11:21:30;3.35;;;1.30;;
5343;SDS011;2694;48.954;8.928;2023-04-24T11:23:58;6.47;;;1.30;;
5343;SDS011;2694;48.954;8.928;2023-04-24T11:26:53;2.38;;;1.40;;
5343;SDS011;2694;48.954;8.928;2023-04-24T11:29:22;2.63;;;1.30;;
5343;SDS011;2694;48.954;8.928;2023-04-24T11:31:50;2.10;;;1.00;;
5343;SDS011;2694;48.954;8.928;2023-04-24T11:34:17;1.55;;;0.73;;
5343;SDS011;2694;48.954;8.928;2023-04-24T11:36:44;2.80;;;1.00;;
5343;SDS011;2694;48.954;8.928;2023-04-24T11:39:12;8.63;;;1.80;;
5343;SDS011;2694;48.954;8.928;2023-04-24T11:41:39;5.28;;;2.50;;
5343;SDS011;2694;48.954;8.928;2023-04-24T11:44:06;5.35;;;2.53;;
5343;SDS011;2694;48.954;8.928;2023-04-24T11:46:34;5.70;;;2.00;;
5343;SDS011;2694;48.954;8.928;2023-04-24T11:49:04;7.70;;;1.70;;
5343;SDS011;2694;48.954;8.928;2023-04-24T11:51:31;3.10;;;1.50;;
5343;SDS011;2694;48.954;8.928;2023-04-24T11:53:58;2.65;;;1.45;;
5343;SDS011;2694;48.954;8.928;2023-04-24T11:56:25;2.80;;;1.40;;
5343;SDS011;2694;48.954;8.928;2023-04-24T11:58:52;2.75;;;1.60;;
5343;SDS011;2694;48.954;8.928;2023-04-24T12:01:20;2.33;;;1.20;;
5343;SDS011;2694;48.954;8.928;2023-04-24T12:03:47;3.00;;;1.27;;
5343;SDS011;2694;48.954;8.928;2023-04-24T12:06:17;2.03;;;1.60;;
5343;SDS011;2694;48.954;8.928;2023-04-24T12:08:48;4.30;;;1.17;;
5343;SDS011;2694;48.954;8.928;2023-04-24T12:11:15;2.25;;;1.10;;
5343;SDS011;2694;48.954;8.928;2023-04-24T12:13:45;2.33;;;1.20;;
5343;SDS011;2694;48.954;8.928;2023-04-24T12:16:12;2.30;;;1.40;;
5343;SDS011;2694;48.954;8.928;2023-04-24T12:18:42;4.13;;;1.60;;
5343;SDS011;2694;48.954;8.928;2023-04-24T12:21:21;2.67;;;1.80;;
5343;SDS011;2694;48.954;8.928;2023-04-24T12:23:53;4.10;;;1.90;;
5343;SDS011;2694;48.954;8.928;2023-04-24T12:26:21;4.40;;;1.90;;
5343;SDS011;2694;48.954;8.928;2023-04-24T12:28:49;1.73;;;1.23;;
5343;SDS011;2694;48.954;8.928;2023-04-24T12:31:16;2.10;;;1.40;;
5343;SDS011;2694;48.954;8.928;2023-04-24T12:33:43;2.60;;;1.50;;
5343;SDS011;2694;48.954;8.928;2023-04-24T12:36:10;2.25;;;1.52;;
5343;SDS011;2694;48.954;8.928;2023-04-24T12:38:39;2.50;;;1.50;;
5343;SDS011;2694;48.954;8.928;2023-04-24T12:41:11;5.60;;;1.73;;
5343;SDS011;2694;48.954;8.928;2023-04-24T12:43:50;3.60;;;1.77;;
5343;SDS011;2694;48.954;8.928;2023-04-24T12:46:17;4.97;;;2.00;;
5343;SDS011;2694;48.954;8.928;2023-04-24T12:48:45;3.20;;;1.80;;
5343;SDS011;2694;48.954;8.928;2023-04-24T12:51:12;4.87;;;1.90;;
5343;SDS011;2694;48.954;8.928;2023-04-24T12:53:40;2.83;;;1.90;;
5343;SDS011;2694;48.954;8.928;2023-04-24T12:56:07;6.68;;;2.10;;
5343;SDS011;2694;48.954;8.928;2023-04-24T12:58:34;3.55;;;2.20;;
5343;SDS011;2694;48.954;8.928;2023-04-24T13:01:01;3.00;;;1.90;;
5343;SDS011;2694;48.954;8.928;2023-04-24T13:03:28;2.90;;;2.10;;
5343;SDS011;2694;48.954;8.928;2023-04-24T13:05:55;3.80;;;2.00;;
5343;SDS011;2694;48.954;8.928;2023-04-24T13:08:22;3.20;;;2.00;;
5343;SDS011;2694;48.954;8.928;2023-04-24T13:10:50;3.58;;;1.95;;
5343;SDS011;2694;48.954;8.928;2023-04-24T13:13:18;4.20;;;2.00;;
5343;SDS011;2694;48.954;8.928;2023-04-24T13:15:45;5.43;;;2.00;;
5343;SDS011;2694;48.954;8.928;2023-04-24T13:18:12;3.60;;;1.90;;
5343;SDS011;2694;48.954;8.928;2023-04-24T13:20:39;4.47;;;1.73;;
5343;SDS011;2694;48.954;8.928;2023-04-24T13:23:06;3.78;;;2.00;;
5343;SDS011;2694;48.954;8.928;2023-04-24T13:25:34;4.05;;;1.80;;
5343;SDS011;2694;48.954;8.928;2023-04-24T13:28:03;2.70;;;1.63;;
5343;SDS011;2694;48.954;8.928;2023-04-24T13:30:30;4.60;;;1.90;;
5343;SDS011;2694;48.954;8.928;2023-04-24T13:32:58;4.53;;;2.00;;
5343;SDS011;2694;48.954;8.928;2023-04-24T13:35:25;3.70;;;2.00;;
5343;SDS011;2694;48.954;8.928;2023-04-24T13:37:51;5.50;;;2.08;;
5343;SDS011;2694;48.954;8.928;2023-04-24T13:40:18;7.70;;;3.00;;
5343;SDS011;2694;48.954;8.928;2023-04-24T13:42:45;3.93;;;2.20;;
5343;SDS011;2694;48.954;8.928;2023-04-24T13:45:13;3.80;;;1.90;;
5343;SDS011;2694;48.954;8.928;2023-04-24T13:47:40;4.15;;;1.52;;
5343;SDS011;2694;48.954;8.928;2023-04-24T13:50:08;2.35;;;1.52;;
5343;SDS011;2694;48.954;8.928;2023-04-24T13:52:35;4.63;;;2.00;;
5343;SDS011;2694;48.954;8.928;2023-04-24T13:55:02;2.60;;;1.90;;
5343;SDS011;2694;48.954;8.928;2023-04-24T13:57:30;2.67;;;1.90;;
5343;SDS011;2694;48.954;8.928;2023-04-24T13:59:57;2.97;;;1.70;;
5343;SDS011;2694;48.954;8.928;2023-04-24T14:02:30;3.80;;;1.95;;
5343;SDS011;2694;48.954;8.928;2023-04-24T14:04:57;3.10;;;1.95;;
5343;SDS011;2694;48.954;8.928;2023-04-24T14:07:24;3.35;;;2.20;;
5343;SDS011;2694;48.954;8.928;2023-04-24T14:09:52;3.88;;;2.13;;
5343;SDS011;2694;48.954;8.928;2023-04-24T14:12:19;4.30;;;2.20;;
5343;SDS011;2694;48.954;8.928;2023-04-24T14:14:46;4.50;;;2.00;;
5343;SDS011;2694;48.954;8.928;2023-04-24T14:17:14;2.75;;;2.15;;
5343;SDS011;2694;48.954;8.928;2023-04-24T14:19:42;2.83;;;2.17;;
5343;SDS011;2694;48.954;8.928;2023-04-24T14:22:09;7.38;;;2.60;;
5343;SDS011;2694;48.954;8.928;2023-04-24T14:24:36;3.28;;;1.80;;
5343;SDS011;2694;48.954;8.928;2023-04-24T14:27:03;2.58;;;1.65;;
5343;SDS011;2694;48.954;8.928;2023-04-24T14:29:30;4.35;;;1.83;;
5343;SDS011;2694;48.954;8.928;2023-04-24T14:31:57;2.40;;;1.70;;
5343;SDS011;2694;48.954;8.928;2023-04-24T14:34:24;4.35;;;1.60;;
5343;SDS011;2694;48.954;8.928;2023-04-24T14:36:52;4.00;;;1.60;;
5343;SDS011;2694;48.954;8.928;2023-04-24T14:39:19;6.38;;;1.90;;
5343;SDS011;2694;48.954;8.928;2023-04-24T14:41:46;4.37;;;1.50;;
5343;SDS011;2694;48.954;8.928;2023-04-24T14:44:13;3.70;;;1.60;;
5343;SDS011;2694;48.954;8.928;2023-04-24T14:46:40;2.53;;;1.30;;
5343;SDS011;2694;48.954;8.928;2023-04-24T14:49:08;2.05;;;1.20;;
5343;SDS011;2694;48.954;8.928;2023-04-24T14:51:36;2.10;;;1.33;;
5343;SDS011;2694;48.954;8.928;2023-04-24T14:54:05;2.22;;;1.20;;
5343;SDS011;2694;48.954;8.928;2023-04-24T14:56:31;4.63;;;1.67;;
5343;SDS011;2694;48.954;8.928;2023-04-24T14:58:58;2.40;;;1.70;;
5343;SDS011;2694;48.954;8.928;2023-04-24T15:01:25;4.95;;;1.40;;
5343;SDS011;2694;48.954;8.928;2023-04-24T15:03:52;4.63;;;1.70;;
5343;SDS011;2694;48.954;8.928;2023-04-24T15:06:19;1.83;;;1.33;;
5343;SDS011;2694;48.954;8.928;2023-04-24T15:08:46;3.92;;;1.50;;
5343;SDS011;2694;48.954;8.928;2023-04-24T15:11:14;2.17;;;1.70;;
5343;SDS011;2694;48.954;8.928;2023-04-24T15:13:41;2.97;;;1.70;;
5343;SDS011;2694;48.954;8.928;2023-04-24T15:16:10;1.85;;;1.35;;
5343;SDS011;2694;48.954;8.928;2023-04-24T15:18:37;2.42;;;1.60;;
5343;SDS011;2694;48.954;8.928;2023-04-24T15:21:03;2.40;;;1.40;;
5343;SDS011;2694;48.954;8.928;2023-04-24T15:23:30;2.60;;;1.40;;
5343;SDS011;2694;48.954;8.928;2023-04-24T15:25:57;2.45;;;1.35;;